createdAt,value
2022-11-24T00:01:28.630Z,12.28
2022-11-24T00:04:02.207Z,11.79
2022-11-24T00:06:31.560Z,11.62
2022-11-24T00:08:59.508Z,11.83
2022-11-24T00:11:32.798Z,11.81
2022-11-24T00:14:01.929Z,11.96
2022-11-24T00:16:32.594Z,12.09
2022-11-24T00:19:02.324Z,11.69
2022-11-24T00:21:31.897Z,11.69
2022-11-24T00:23:59.564Z,11.69
2022-11-24T00:26:30.642Z,12.07
2022-11-24T00:29:01.226Z,12.14
2022-11-24T00:31:36.591Z,11.59
2022-11-24T00:34:09.792Z,11.73
2022-11-24T00:36:37.719Z,11.83
2022-11-24T00:39:14.348Z,12.39
2022-11-24T00:41:42.546Z,12.15
2022-11-24T00:44:09.750Z,12.02
2022-11-24T00:46:37.563Z,11.67
2022-11-24T00:49:05.532Z,11.63
2022-11-24T00:51:33.153Z,11.44
2022-11-24T00:54:01.334Z,11.65
2022-11-24T00:56:29.979Z,11.56
2022-11-24T00:58:57.805Z,11.61
2022-11-24T01:01:28.360Z,11.84
2022-11-24T01:03:56.494Z,11.53
2022-11-24T01:06:26.543Z,11.52
2022-11-24T01:08:54.146Z,11.48
2022-11-24T01:11:54.172Z,11.66
2022-11-24T01:14:25.748Z,11.46
2022-11-24T01:16:56.192Z,11.55
2022-11-24T01:19:24.294Z,11.47
2022-11-24T01:21:52.254Z,11.36
2022-11-24T01:24:19.750Z,10.78
2022-11-24T01:26:47.289Z,11.40
2022-11-24T01:29:15.524Z,11.21
2022-11-24T01:31:45.013Z,11.26
2022-11-24T01:34:13.299Z,11.46
2022-11-24T01:36:40.799Z,11.78
2022-11-24T01:39:08.322Z,11.24
2022-11-24T01:41:35.786Z,11.32
2022-11-24T01:44:29.013Z,11.54
2022-11-24T01:47:03.005Z,11.37
2022-11-24T01:49:45.411Z,11.45
2022-11-24T01:52:18.950Z,11.53
2022-11-24T01:54:52.907Z,11.42
2022-11-24T01:57:31.300Z,11.47
2022-11-24T02:00:06.801Z,11.39
2022-11-24T02:02:42.539Z,11.71
2022-11-24T02:05:20.252Z,11.70
2022-11-24T02:07:48.796Z,11.07
2022-11-24T02:10:19.287Z,11.50
2022-11-24T02:12:49.088Z,11.71
2022-11-24T02:15:18.366Z,11.31
2022-11-24T02:17:45.509Z,11.58
2022-11-24T02:20:17.930Z,11.54
2022-11-24T02:23:22.269Z,11.09
2022-11-24T02:26:08.401Z,11.35
2022-11-24T02:28:35.782Z,11.50
2022-11-24T02:31:03.414Z,11.54
2022-11-24T02:33:31.402Z,11.47
2022-11-24T02:35:58.958Z,11.51
2022-11-24T02:38:35.236Z,11.56
2022-11-24T02:41:14.044Z,11.29
2022-11-24T02:43:51.731Z,11.38
2022-11-24T02:46:19.106Z,11.11
2022-11-24T02:48:47.903Z,11.01
2022-11-24T02:51:15.301Z,11.11
2022-11-24T02:53:42.662Z,11.05
2022-11-24T02:56:10.059Z,11.29
2022-11-24T02:58:37.452Z,11.35
2022-11-24T03:01:05.302Z,11.54
2022-11-24T03:03:35.471Z,11.30
2022-11-24T03:06:02.855Z,11.61
2022-11-24T03:08:30.284Z,11.46
2022-11-24T03:10:57.642Z,11.42
2022-11-24T03:13:25.055Z,11.30
2022-11-24T03:15:52.454Z,11.48
2022-11-24T03:18:19.896Z,11.09
2022-11-24T03:20:47.348Z,11.10
2022-11-24T03:23:14.995Z,11.12
2022-11-24T03:25:42.326Z,11.01
2022-11-24T03:28:10.127Z,11.16
2022-11-24T03:30:37.476Z,10.99
2022-11-24T03:33:05.036Z,11.18
2022-11-24T03:35:32.499Z,11.22
2022-11-24T03:37:59.869Z,10.97
2022-11-24T03:40:27.263Z,10.81
2022-11-24T03:42:54.581Z,11.18
2022-11-24T03:45:44.934Z,10.81
2022-11-24T03:48:10.757Z,10.97
2022-11-24T03:50:38.114Z,11.11
2022-11-24T03:53:05.478Z,11.56
2022-11-24T03:55:32.818Z,11.42
2022-11-24T03:58:02.989Z,11.33
2022-11-24T04:00:30.473Z,11.46
2022-11-24T04:02:57.905Z,11.59
2022-11-24T04:05:25.313Z,11.64
2022-11-24T04:07:57.267Z,11.94
2022-11-24T04:10:25.193Z,11.15
2022-11-24T04:12:52.126Z,11.45
2022-11-24T04:15:20.698Z,10.93
2022-11-24T04:17:49.800Z,11.22
2022-11-24T04:20:17.635Z,11.00
2022-11-24T04:22:45.030Z,11.23
2022-11-24T04:25:12.546Z,11.27
2022-11-24T04:27:39.775Z,11.58
2022-11-24T04:30:07.929Z,11.17
2022-11-24T04:32:35.507Z,11.13
2022-11-24T04:35:04.053Z,11.44
2022-11-24T04:37:31.606Z,11.37
2022-11-24T04:39:59.176Z,11.52
2022-11-24T04:42:26.176Z,11.70
2022-11-24T04:44:53.622Z,11.12
2022-11-24T04:47:23.677Z,11.37
2022-11-24T04:49:51.620Z,11.54
2022-11-24T04:52:21.446Z,11.55
2022-11-24T04:54:49.401Z,11.46
2022-11-24T04:57:17.417Z,11.35
2022-11-24T04:59:44.430Z,11.90
2022-11-24T05:02:12.459Z,11.50
2022-11-24T05:04:40.192Z,11.63
2022-11-24T05:07:07.721Z,11.90
2022-11-24T05:09:59.433Z,11.35
2022-11-24T05:12:31.133Z,11.81
2022-11-24T05:14:59.509Z,11.77
2022-11-24T05:17:31.413Z,11.81
2022-11-24T05:19:58.862Z,11.27
2022-11-24T05:22:27.698Z,11.49
2022-11-24T05:24:55.013Z,11.24
2022-11-24T05:27:22.485Z,11.59
2022-11-24T05:29:49.415Z,11.90
2022-11-24T05:32:16.736Z,11.54
2022-11-24T05:34:46.275Z,11.29
2022-11-24T05:37:13.554Z,10.76
2022-11-24T05:39:40.899Z,11.72
2022-11-24T05:42:26.914Z,11.65
2022-11-24T05:44:54.594Z,11.44
2022-11-24T05:47:22.072Z,11.61
2022-11-24T05:49:49.465Z,11.69
2022-11-24T05:52:17.224Z,12.01
2022-11-24T05:54:44.179Z,11.98
2022-11-24T05:57:11.483Z,11.66
2022-11-24T05:59:38.847Z,11.72
2022-11-24T06:02:06.438Z,11.24
2022-11-24T06:04:37.184Z,11.25
2022-11-24T06:07:06.738Z,11.72
2022-11-24T06:09:37.825Z,11.31
2022-11-24T06:12:09.583Z,11.18
2022-11-24T06:14:37.293Z,11.37
2022-11-24T06:17:06.279Z,10.86
2022-11-24T06:19:35.498Z,11.64
2022-11-24T06:22:05.961Z,11.00
2022-11-24T06:24:33.557Z,11.53
2022-11-24T06:27:01.156Z,11.31
2022-11-24T06:29:28.465Z,11.41
2022-11-24T06:31:55.799Z,11.55
2022-11-24T06:34:23.179Z,11.37
2022-11-24T06:36:50.065Z,11.08
2022-11-24T06:39:17.030Z,11.78
2022-11-24T06:41:44.404Z,11.96
2022-11-24T06:44:11.747Z,11.49
2022-11-24T06:46:39.073Z,11.64
2022-11-24T06:49:06.377Z,11.41
2022-11-24T06:51:33.738Z,11.38
2022-11-24T06:54:00.712Z,11.99
2022-11-24T06:56:28.295Z,11.36
2022-11-24T06:58:55.722Z,11.39
2022-11-24T07:01:28.745Z,11.72
2022-11-24T07:03:56.895Z,11.52
2022-11-24T07:06:26.104Z,11.87
2022-11-24T07:08:53.553Z,11.12
2022-11-24T07:11:25.118Z,11.28
2022-11-24T07:13:58.141Z,11.61
2022-11-24T07:16:27.756Z,11.74
2022-11-24T07:18:56.107Z,11.48
2022-11-24T07:21:24.923Z,11.55
2022-11-24T07:23:54.352Z,11.57
2022-11-24T07:26:23.195Z,11.30
2022-11-24T07:28:50.751Z,11.74
2022-11-24T07:31:21.450Z,12.24
2022-11-24T07:33:53.522Z,12.82
2022-11-24T07:36:21.368Z,13.07
2022-11-24T07:38:49.288Z,12.17
2022-11-24T07:41:19.460Z,12.72
2022-11-24T07:43:47.769Z,12.39
2022-11-24T07:46:18.075Z,12.71
2022-11-24T07:48:46.290Z,12.56
2022-11-24T07:51:14.066Z,12.60
2022-11-24T07:53:41.474Z,12.64
2022-11-24T07:56:10.078Z,12.64
2022-11-24T07:58:38.086Z,22.65
2022-11-24T08:01:14.962Z,15.31
2022-11-24T08:03:42.835Z,13.95
2022-11-24T08:06:30.506Z,11.93
2022-11-24T08:09:00.472Z,12.80
2022-11-24T08:11:28.372Z,13.14
2022-11-24T08:13:55.516Z,12.98
2022-11-24T08:16:23.357Z,13.23
2022-11-24T08:18:53.408Z,12.74
2022-11-24T08:21:23.119Z,12.61
2022-11-24T08:23:53.921Z,13.24
2022-11-24T08:26:21.392Z,13.16
2022-11-24T08:28:53.656Z,13.43
2022-11-24T08:31:21.011Z,12.84
2022-11-24T08:33:48.853Z,12.10
2022-11-24T08:36:19.136Z,12.93
2022-11-24T08:38:48.173Z,12.50
2022-11-24T08:41:17.875Z,12.47
2022-11-24T08:43:45.495Z,12.30
2022-11-24T08:46:17.271Z,12.87
2022-11-24T08:48:54.475Z,12.56
2022-11-24T08:51:26.242Z,13.32
2022-11-24T08:53:58.770Z,13.18
2022-11-24T08:56:26.774Z,13.35
2022-11-24T08:58:54.974Z,13.32
2022-11-24T09:01:22.689Z,12.61
2022-11-24T09:03:51.601Z,12.64
2022-11-24T09:06:25.193Z,12.86
2022-11-24T09:08:54.511Z,12.50
2022-11-24T09:11:22.490Z,12.21
2022-11-24T09:13:49.829Z,12.04
2022-11-24T09:16:26.155Z,11.70
2022-11-24T09:19:03.130Z,12.38
2022-11-24T09:21:31.556Z,12.63
2022-11-24T09:23:58.591Z,12.74
2022-11-24T09:26:29.301Z,12.67
2022-11-24T09:28:57.880Z,12.86
2022-11-24T09:31:28.645Z,12.47
2022-11-24T09:33:56.787Z,12.65
2022-11-24T09:36:24.751Z,12.43
2022-11-24T09:38:52.573Z,13.04
2022-11-24T09:41:41.406Z,13.50
2022-11-24T09:44:39.741Z,13.19
2022-11-24T09:48:03.965Z,13.33
2022-11-24T09:50:37.394Z,13.26
2022-11-24T09:53:25.810Z,12.86
2022-11-24T09:56:02.322Z,12.33
2022-11-24T09:58:48.632Z,12.86
2022-11-24T10:01:27.915Z,12.60
2022-11-24T10:03:56.947Z,12.77
2022-11-24T10:06:31.528Z,13.11
2022-11-24T10:09:40.908Z,12.62
2022-11-24T10:12:34.936Z,12.45
2022-11-24T10:15:31.647Z,12.02
2022-11-24T10:18:30.369Z,12.39
2022-11-24T10:21:41.975Z,11.91
2022-11-24T10:24:55.346Z,12.57
2022-11-24T10:27:57.172Z,11.67
2022-11-24T10:30:24.191Z,12.33
2022-11-24T10:33:15.726Z,13.30
2022-11-24T10:35:55.744Z,12.84
2022-11-24T10:38:52.961Z,12.39
2022-11-24T10:41:58.137Z,12.28
2022-11-24T10:44:25.714Z,13.13
2022-11-24T10:46:52.730Z,13.39
2022-11-24T10:49:33.377Z,12.61
2022-11-24T10:52:18.731Z,12.59
2022-11-24T10:55:01.682Z,13.49
2022-11-24T10:57:40.830Z,11.67
2022-11-24T11:00:20.134Z,12.88
2022-11-24T11:02:49.633Z,12.33
2022-11-24T11:05:31.906Z,12.91
2022-11-24T11:08:14.178Z,13.27
2022-11-24T11:10:46.189Z,12.83
2022-11-24T11:13:29.407Z,12.50
2022-11-24T11:15:58.799Z,13.29
2022-11-24T11:18:33.487Z,13.39
2022-11-24T11:21:02.449Z,13.38
2022-11-24T11:23:33.902Z,13.71
2022-11-24T11:26:25.213Z,13.84
2022-11-24T11:35:05.734Z,12.95
2022-11-24T11:37:33.721Z,12.69
2022-11-24T11:40:01.522Z,12.45
2022-11-24T11:43:04.086Z,13.15
2022-11-24T11:45:45.273Z,13.34
2022-11-24T11:48:42.375Z,13.76
2022-11-24T11:51:43.647Z,13.30
2022-11-24T11:54:27.179Z,13.63
2022-11-24T11:57:16.296Z,13.20
2022-11-24T12:00:02.100Z,13.01
2022-11-24T12:02:56.147Z,13.44
2022-11-24T12:05:46.123Z,13.10
2022-11-24T12:08:31.327Z,13.06
2022-11-24T12:11:16.121Z,13.37
2022-11-24T12:14:27.307Z,13.93
2022-11-24T12:17:36.501Z,13.73
2022-11-24T12:20:39.865Z,13.32
2022-11-24T12:23:53.346Z,13.43
2022-11-24T12:26:49.402Z,12.95
2022-11-24T12:29:43.264Z,13.27
2022-11-24T12:33:00.244Z,13.28
2022-11-24T12:35:49.143Z,13.40
2022-11-24T12:38:45.130Z,12.96
2022-11-24T12:41:43.766Z,12.99
2022-11-24T12:45:13.434Z,13.77
2022-11-24T12:48:03.734Z,13.73
2022-11-24T12:50:37.279Z,13.25
2022-11-24T12:53:28.059Z,13.48
2022-11-24T12:56:12.419Z,13.87
2022-11-24T12:58:45.716Z,13.90
2022-11-24T13:01:31.726Z,13.70
2022-11-24T13:04:38.195Z,13.79
2022-11-24T13:07:16.543Z,13.38
2022-11-24T13:10:54.010Z,13.15
2022-11-24T13:13:15.990Z,12.89
2022-11-24T13:16:34.434Z,13.08
2022-11-24T13:18:59.140Z,12.76
2022-11-24T13:21:47.101Z,13.01
2022-11-24T13:24:18.249Z,13.72
2022-11-24T13:26:49.450Z,13.96
2022-11-24T13:29:28.758Z,13.93
2022-11-24T13:32:19.075Z,14.08
2022-11-24T13:34:46.933Z,13.83
2022-11-24T13:37:31.785Z,13.94
2022-11-24T13:40:22.852Z,14.13
2022-11-24T13:43:10.088Z,14.34
2022-11-24T13:45:40.489Z,13.90
2022-11-24T13:48:20.369Z,13.84
2022-11-24T13:50:50.876Z,13.74
2022-11-24T13:53:40.874Z,13.71
2022-11-24T13:56:23.652Z,13.81
2022-11-24T13:59:15.373Z,13.70
2022-11-24T14:01:44.563Z,13.36
2022-11-24T14:04:31.043Z,13.88
2022-11-24T14:07:13.569Z,13.63
2022-11-24T14:09:47.631Z,13.46
2022-11-24T14:12:20.930Z,13.48
2022-11-24T14:14:51.193Z,13.21
2022-11-24T14:17:25.462Z,13.34
2022-11-24T14:19:57.855Z,13.64
2022-11-24T14:22:42.969Z,13.74
2022-11-24T14:25:35.126Z,13.82
2022-11-24T14:28:02.257Z,13.89
2022-11-24T14:30:29.796Z,13.50
2022-11-24T14:33:01.737Z,13.18
2022-11-24T14:35:31.999Z,13.28
2022-11-24T14:38:02.277Z,13.34
2022-11-24T14:40:47.257Z,13.60
2022-11-24T14:43:40.436Z,13.29
2022-11-24T14:46:18.372Z,13.58
2022-11-24T14:48:51.755Z,13.58
2022-11-24T14:51:22.394Z,13.15
2022-11-24T14:53:56.602Z,13.65
2022-11-24T14:56:29.906Z,13.21
2022-11-24T14:58:58.692Z,13.40
2022-11-24T15:01:28.520Z,13.62
2022-11-24T15:05:00.944Z,13.56
2022-11-24T15:07:29.701Z,13.80
2022-11-24T15:10:01.777Z,13.37
2022-11-24T15:12:38.657Z,13.59
2022-11-24T15:15:15.047Z,13.46
2022-11-24T15:17:56.789Z,13.25
2022-11-24T15:20:42.161Z,13.79
2022-11-24T15:23:29.550Z,13.36
2022-11-24T15:26:17.076Z,13.43
2022-11-24T15:28:46.672Z,13.36
2022-11-24T15:31:14.418Z,13.31
2022-11-24T15:33:42.306Z,13.58
2022-11-24T15:36:09.239Z,13.54
2022-11-24T15:38:36.128Z,13.25
2022-11-24T15:41:16.614Z,13.79
2022-11-24T15:43:43.614Z,13.25
2022-11-24T15:46:10.596Z,13.40
2022-11-24T15:48:37.506Z,13.49
2022-11-24T15:51:12.853Z,13.44
2022-11-24T15:53:44.637Z,13.04
2022-11-24T15:56:38.806Z,13.28
2022-11-24T15:59:05.920Z,12.58
2022-11-24T16:01:34.041Z,13.09
2022-11-24T16:04:02.156Z,12.77
2022-11-24T16:06:29.042Z,12.71
2022-11-24T16:08:57.607Z,12.61
2022-11-24T16:11:24.904Z,12.67
2022-11-24T16:13:53.692Z,12.73
2022-11-24T16:16:23.015Z,12.95
2022-11-24T16:18:50.541Z,12.85
2022-11-24T16:21:17.476Z,12.51
2022-11-24T16:23:45.521Z,12.81
2022-11-24T16:26:12.773Z,13.21
2022-11-24T16:28:40.510Z,13.07
2022-11-24T16:31:07.547Z,13.33
2022-11-24T16:33:34.667Z,13.23
2022-11-24T16:36:01.564Z,12.95
2022-11-24T16:38:28.459Z,12.82
2022-11-24T16:40:58.473Z,12.52
2022-11-24T16:43:25.966Z,12.58
2022-11-24T16:46:09.256Z,12.68
2022-11-24T16:48:37.323Z,12.61
2022-11-24T16:51:11.184Z,12.39
2022-11-24T16:53:38.699Z,12.46
2022-11-24T16:56:06.583Z,12.74
2022-11-24T16:58:34.188Z,12.73
2022-11-24T17:01:10.370Z,12.63
2022-11-24T17:03:38.291Z,12.82
2022-11-24T17:06:07.762Z,13.13
2022-11-24T17:08:36.668Z,12.84
2022-11-24T17:11:16.676Z,12.94
2022-11-24T17:13:45.649Z,13.00
2022-11-24T17:16:16.132Z,13.06
2022-11-24T17:18:43.700Z,12.79
2022-11-24T17:21:18.199Z,12.90
2022-11-24T17:23:45.764Z,12.72
2022-11-24T17:26:15.608Z,13.09
2022-11-24T17:28:43.516Z,12.80
2022-11-24T17:31:23.362Z,13.09
2022-11-24T17:33:52.863Z,12.75
2022-11-24T17:36:20.218Z,12.81
2022-11-24T17:38:49.351Z,12.65
2022-11-24T17:41:20.291Z,12.75
2022-11-24T17:43:55.693Z,12.70
2022-11-24T17:46:24.297Z,12.61
2022-11-24T17:48:51.743Z,12.46
2022-11-24T17:51:21.427Z,12.45
2022-11-24T17:53:50.979Z,12.54
2022-11-24T17:56:25.456Z,12.77
2022-11-24T17:58:55.506Z,12.60
2022-11-24T18:01:23.098Z,12.55
2022-11-24T18:03:53.432Z,12.41
2022-11-24T18:06:24.026Z,12.43
2022-11-24T18:08:51.455Z,12.50
2022-11-24T18:11:24.615Z,12.38
2022-11-24T18:13:59.792Z,12.62
2022-11-24T18:16:29.735Z,12.46
2022-11-24T18:19:14.628Z,12.58
2022-11-24T18:21:44.597Z,12.49
2022-11-24T18:24:12.496Z,12.49
2022-11-24T18:26:40.454Z,12.53
2022-11-24T18:29:07.979Z,12.47
2022-11-24T18:31:36.128Z,12.41
2022-11-24T18:34:05.240Z,12.43
2022-11-24T18:36:33.007Z,12.42
2022-11-24T18:39:08.721Z,12.41
2022-11-24T18:41:36.070Z,12.20
2022-11-24T18:44:07.470Z,12.15
2022-11-24T18:46:35.005Z,11.99
2022-11-24T18:49:02.320Z,12.00
2022-11-24T18:51:29.921Z,11.98
2022-11-24T18:54:02.067Z,12.05
2022-11-24T18:56:29.094Z,11.96
2022-11-24T18:58:56.494Z,12.09
2022-11-24T19:01:27.663Z,12.28
2022-11-24T19:03:58.019Z,12.10
2022-11-24T19:06:32.847Z,12.19
2022-11-24T19:09:07.161Z,12.06
2022-11-24T19:11:37.511Z,11.97
2022-11-24T19:14:08.512Z,11.98
2022-11-24T19:16:35.864Z,11.86
2022-11-24T19:19:03.293Z,11.85
2022-11-24T19:21:37.129Z,11.91
2022-11-24T19:24:06.591Z,11.75
2022-11-24T19:26:37.293Z,11.62
2022-11-24T19:29:05.523Z,11.67
2022-11-24T19:31:33.587Z,11.59
2022-11-24T19:34:02.735Z,11.61
2022-11-24T19:36:30.067Z,11.60
2022-11-24T19:38:58.547Z,11.68
2022-11-24T19:41:29.411Z,11.71
2022-11-24T19:43:57.822Z,11.65
2022-11-24T19:46:27.522Z,11.66
2022-11-24T19:48:56.987Z,11.64
2022-11-24T19:51:27.848Z,11.53
2022-11-24T19:53:55.209Z,11.47
2022-11-24T19:56:24.882Z,11.54
2022-11-24T19:58:53.793Z,11.50
2022-11-24T20:01:37.410Z,11.53
2022-11-24T20:04:09.227Z,11.41
2022-11-24T20:06:39.602Z,11.53
2022-11-24T20:09:10.059Z,11.54
2022-11-24T20:11:37.604Z,11.59
2022-11-24T20:14:05.661Z,11.68
2022-11-24T20:16:34.580Z,11.66
2022-11-24T20:19:12.309Z,11.72
2022-11-24T20:21:41.609Z,11.69
2022-11-24T20:24:13.518Z,11.66
2022-11-24T20:26:50.198Z,11.63
2022-11-24T20:29:18.405Z,11.56
2022-11-24T20:31:49.536Z,11.51
2022-11-24T20:34:16.885Z,11.43
2022-11-24T20:36:45.828Z,11.54
2022-11-24T20:39:16.204Z,11.55
2022-11-24T20:41:43.169Z,11.39
2022-11-24T20:44:15.121Z,11.55
2022-11-24T20:46:44.833Z,11.39
2022-11-24T20:49:16.534Z,11.38
2022-11-24T20:51:46.834Z,11.32
2022-11-24T20:54:16.705Z,11.42
2022-11-24T20:56:46.251Z,11.33
2022-11-24T20:59:21.433Z,11.36
2022-11-24T21:01:50.008Z,11.42
2022-11-24T21:04:21.357Z,11.59
2022-11-24T21:06:48.576Z,11.28
2022-11-24T21:09:16.169Z,11.34
2022-11-24T21:11:44.011Z,11.18
2022-11-24T21:14:11.668Z,11.04
2022-11-24T21:16:42.093Z,11.13
2022-11-24T21:19:17.830Z,11.10
2022-11-24T21:21:47.433Z,10.99
2022-11-24T21:24:16.940Z,10.95
2022-11-24T21:26:47.689Z,10.92
2022-11-24T21:29:18.792Z,11.17
2022-11-24T21:31:45.799Z,11.00
2022-11-24T21:34:16.400Z,11.15
2022-11-24T21:36:44.994Z,10.99
2022-11-24T21:39:16.140Z,10.98
2022-11-24T21:41:43.750Z,11.09
2022-11-24T21:44:14.916Z,11.03
2022-11-24T21:46:48.117Z,11.04
2022-11-24T21:49:17.887Z,10.71
2022-11-24T21:51:45.242Z,11.08
2022-11-24T21:54:12.579Z,11.07
2022-11-24T21:56:39.876Z,10.98
2022-11-24T21:59:07.226Z,10.94
2022-11-24T22:01:34.753Z,11.04
2022-11-24T22:04:01.752Z,10.70
2022-11-24T22:06:28.703Z,10.63
2022-11-24T22:08:58.884Z,10.80
2022-11-24T22:11:26.394Z,10.56
2022-11-24T22:13:53.864Z,10.69
2022-11-24T22:16:23.761Z,10.65
2022-11-24T22:18:54.013Z,10.86
2022-11-24T22:21:35.665Z,10.80
2022-11-24T22:24:05.913Z,10.76
2022-11-24T22:26:33.351Z,10.66
2022-11-24T22:29:07.412Z,10.59
2022-11-24T22:31:36.557Z,10.60
2022-11-24T22:34:03.948Z,10.57
2022-11-24T22:36:31.328Z,10.59
2022-11-24T22:39:03.826Z,10.61
2022-11-24T22:41:33.724Z,10.56
2022-11-24T22:44:01.008Z,10.50
2022-11-24T22:46:30.365Z,10.61
2022-11-24T22:49:00.281Z,10.46
2022-11-24T22:51:33.701Z,10.58
2022-11-24T22:54:03.797Z,10.59
2022-11-24T22:56:34.569Z,10.41
2022-11-24T22:59:02.950Z,10.41
2022-11-24T23:01:31.865Z,10.37
2022-11-24T23:03:58.932Z,10.29
2022-11-24T23:06:28.774Z,10.35
2022-11-24T23:08:57.974Z,10.33
2022-11-24T23:11:37.797Z,10.34
2022-11-24T23:14:08.140Z,10.29
2022-11-24T23:16:35.618Z,10.28
2022-11-24T23:19:03.309Z,10.29
2022-11-24T23:21:33.368Z,10.23
2022-11-24T23:24:02.938Z,10.22
2022-11-24T23:26:39.672Z,10.26
2022-11-24T23:29:07.690Z,10.18
2022-11-24T23:31:35.469Z,10.22
2022-11-24T23:34:04.225Z,10.18
2022-11-24T23:36:32.180Z,10.16
2022-11-24T23:39:08.803Z,10.16
2022-11-24T23:41:35.971Z,10.06
2022-11-24T23:44:03.572Z,10.11
2022-11-24T23:46:31.068Z,10.07
2022-11-24T23:48:58.421Z,10.13
2022-11-24T23:51:28.585Z,10.07
2022-11-24T23:53:56.400Z,10.02
2022-11-24T23:56:32.426Z,10.21
2022-11-24T23:59:04.112Z,10.10
